createdAt,value
2023-05-02T00:00:14.898Z,100776.09
2023-05-02T00:02:43.813Z,100769.22
2023-05-02T00:05:13.939Z,100764.69
2023-05-02T00:07:42.566Z,100752.31
2023-05-02T00:10:11.704Z,100751.47
2023-05-02T00:12:40.691Z,100752.31
2023-05-02T00:15:10.641Z,100747.13
2023-05-02T00:17:42.045Z,100732.41
2023-05-02T00:20:11.792Z,100737.19
2023-05-02T00:22:41.998Z,100730.59
2023-05-02T00:25:16.316Z,100732.03
2023-05-02T00:27:46.974Z,100728.81
2023-05-02T00:30:16.463Z,100729.00
2023-05-02T00:32:44.939Z,100722.06
2023-05-02T00:35:13.576Z,100731.31
2023-05-02T00:37:43.659Z,100724.00
2023-05-02T00:40:13.276Z,100721.63
2023-05-02T00:42:41.842Z,100718.97
2023-05-02T00:45:12.521Z,100714.44
2023-05-02T00:47:41.273Z,100716.72
2023-05-02T00:50:10.653Z,100712.22
2023-05-02T00:52:39.515Z,100707.91
2023-05-02T00:55:10.486Z,100709.09
2023-05-02T00:57:39.449Z,100703.34
2023-05-02T01:00:09.782Z,100698.00
2023-05-02T01:02:48.344Z,100687.53
2023-05-02T01:05:22.388Z,100684.00
2023-05-02T01:08:02.393Z,100680.94
2023-05-02T01:10:50.089Z,100679.84
2023-05-02T01:13:23.122Z,100677.50
2023-05-02T01:15:53.573Z,100675.75
2023-05-02T01:18:26.763Z,100673.72
2023-05-02T01:21:00.745Z,100670.31
2023-05-02T01:23:44.976Z,100663.78
2023-05-02T01:26:28.653Z,100669.66
2023-05-02T01:29:03.782Z,100661.03
2023-05-02T01:31:36.961Z,100659.94
2023-05-02T01:34:08.225Z,100660.59
2023-05-02T01:36:37.457Z,100662.28
2023-05-02T01:39:08.815Z,100656.34
2023-05-02T01:41:39.121Z,100648.16
2023-05-02T01:44:11.248Z,100653.00
2023-05-02T01:46:43.356Z,100645.38
2023-05-02T01:49:12.917Z,100642.34
2023-05-02T01:51:47.619Z,100635.66
2023-05-02T01:54:18.736Z,100641.41
2023-05-02T01:56:47.626Z,100630.00
2023-05-02T01:59:21.269Z,100634.03
2023-05-02T02:01:51.741Z,100625.75
2023-05-02T02:04:22.291Z,100623.69
2023-05-02T02:07:05.636Z,100620.78
2023-05-02T02:09:34.462Z,100624.41
2023-05-02T02:12:08.402Z,100619.91
2023-05-02T02:14:39.757Z,100619.44
2023-05-02T02:17:14.856Z,100617.59
2023-05-02T02:19:44.809Z,100608.72
2023-05-02T02:22:16.525Z,100612.50
2023-05-02T02:24:46.157Z,100608.34
2023-05-02T02:27:14.847Z,100606.66
2023-05-02T02:29:45.178Z,100603.09
2023-05-02T02:32:14.573Z,100596.78
2023-05-02T02:34:43.356Z,100592.41
2023-05-02T02:37:19.400Z,100594.97
2023-05-02T02:39:57.436Z,100590.81
2023-05-02T02:42:35.399Z,100593.75
2023-05-02T02:45:14.330Z,100584.00
2023-05-02T02:47:50.748Z,100582.78
2023-05-02T02:50:27.034Z,100580.84
2023-05-02T02:53:00.664Z,100574.13
2023-05-02T02:55:39.966Z,100580.59
2023-05-02T02:58:31.968Z,100583.03
2023-05-02T03:01:06.726Z,100578.16
2023-05-02T03:03:36.870Z,100576.22
2023-05-02T03:06:06.282Z,100573.03
2023-05-02T03:08:44.154Z,100570.34
2023-05-02T03:11:18.364Z,100568.16
2023-05-02T03:13:47.586Z,100582.53
2023-05-02T03:16:38.758Z,100576.59
2023-05-02T03:19:11.170Z,100574.88
2023-05-02T03:21:40.354Z,100577.69
2023-05-02T03:24:17.150Z,100576.34
2023-05-02T03:26:47.885Z,100576.44
2023-05-02T03:29:18.403Z,100571.81
2023-05-02T03:31:48.694Z,100570.47
2023-05-02T03:34:17.768Z,100561.81
2023-05-02T03:36:48.707Z,100561.44
2023-05-02T03:39:17.850Z,100560.59
2023-05-02T03:41:47.263Z,100554.88
2023-05-02T03:44:19.876Z,100548.03
2023-05-02T03:46:50.498Z,100544.75
2023-05-02T03:49:20.112Z,100549.59
2023-05-02T03:51:50.902Z,100544.97
2023-05-02T03:54:26.383Z,100545.06
2023-05-02T03:56:56.570Z,100546.16
2023-05-02T03:59:30.785Z,100545.91
2023-05-02T04:02:01.279Z,100545.78
2023-05-02T04:04:41.144Z,100547.97
2023-05-02T04:07:17.129Z,100541.31
2023-05-02T04:09:47.723Z,100537.28
2023-05-02T04:12:17.409Z,100537.22
2023-05-02T04:14:49.553Z,100532.78
2023-05-02T04:17:20.219Z,100533.50
2023-05-02T04:19:51.620Z,100538.16
2023-05-02T04:22:22.927Z,100539.56
2023-05-02T04:24:56.482Z,100532.19
2023-05-02T04:27:27.000Z,100536.56
2023-05-02T04:29:56.648Z,100530.72
2023-05-02T04:32:26.780Z,100527.38
2023-05-02T04:34:56.764Z,100528.66
2023-05-02T04:37:25.864Z,100520.66
2023-05-02T04:39:54.629Z,100514.94
2023-05-02T04:42:27.990Z,100512.84
2023-05-02T04:45:15.336Z,100512.03
2023-05-02T04:47:47.264Z,100505.84
2023-05-02T04:50:16.111Z,100507.53
2023-05-02T04:52:44.883Z,100503.72
2023-05-02T04:55:13.581Z,100501.88
2023-05-02T04:57:42.698Z,100503.31
2023-05-02T05:00:16.131Z,100496.09
2023-05-02T05:02:47.520Z,100495.53
2023-05-02T05:05:16.658Z,100495.41
2023-05-02T05:07:46.240Z,100488.59
2023-05-02T05:10:15.875Z,100491.03
2023-05-02T05:12:47.682Z,100487.50
2023-05-02T05:15:17.886Z,100489.03
2023-05-02T05:17:53.126Z,100480.81
2023-05-02T05:20:21.921Z,100479.19
2023-05-02T05:22:52.629Z,100478.31
2023-05-02T05:25:23.069Z,100463.22
2023-05-02T05:27:53.606Z,100466.00
2023-05-02T05:30:22.795Z,100458.81
2023-05-02T05:32:53.397Z,100461.28
2023-05-02T05:35:23.247Z,100458.72
2023-05-02T05:37:52.162Z,100452.63
2023-05-02T05:40:21.534Z,100450.91
2023-05-02T05:42:56.664Z,100457.63
2023-05-02T05:45:33.060Z,100451.38
2023-05-02T05:48:03.239Z,100451.00
2023-05-02T05:50:35.666Z,100446.72
2023-05-02T05:53:04.420Z,100442.69
2023-05-02T05:55:33.821Z,100439.69
2023-05-02T05:58:04.158Z,100437.53
2023-05-02T06:00:36.003Z,100438.00
2023-05-02T06:03:09.553Z,100434.69
2023-05-02T06:05:39.579Z,100436.06
2023-05-02T06:08:09.181Z,100431.00
2023-05-02T06:10:37.838Z,100437.91
2023-05-02T06:13:06.964Z,100421.59
2023-05-02T06:15:38.645Z,100424.56
2023-05-02T06:18:10.107Z,100424.56
2023-05-02T06:20:38.870Z,100419.56
2023-05-02T06:23:07.393Z,100419.97
2023-05-02T06:25:39.359Z,100412.69
2023-05-02T06:28:09.727Z,100422.66
2023-05-02T06:30:38.346Z,100413.66
2023-05-02T06:33:07.793Z,100421.00
2023-05-02T06:35:37.947Z,100420.25
2023-05-02T06:38:06.510Z,100413.53
2023-05-02T06:40:37.753Z,100410.84
2023-05-02T06:43:06.964Z,100414.97
2023-05-02T06:45:35.778Z,100418.06
2023-05-02T06:48:04.591Z,100407.94
2023-05-02T06:50:33.207Z,100414.25
2023-05-02T06:53:03.646Z,100397.91
2023-05-02T06:55:32.418Z,100406.53
2023-05-02T06:58:01.238Z,100394.34
2023-05-02T07:00:30.022Z,100403.63
2023-05-02T07:02:58.690Z,100401.28
2023-05-02T07:05:27.489Z,100401.28
2023-05-02T07:07:56.188Z,100398.94
2023-05-02T07:10:26.813Z,100397.06
2023-05-02T07:12:55.505Z,100393.59
2023-05-02T07:15:24.134Z,100391.22
2023-05-02T07:17:53.017Z,100394.06
2023-05-02T07:20:21.815Z,100383.25
2023-05-02T07:22:50.491Z,100381.38
2023-05-02T07:25:19.143Z,100381.72
2023-05-02T07:27:49.309Z,100379.78
2023-05-02T07:30:18.063Z,100377.75
2023-05-02T07:32:47.036Z,100379.94
2023-05-02T07:35:15.725Z,100365.41
2023-05-02T07:37:44.483Z,100375.88
2023-05-02T07:40:13.517Z,100373.13
2023-05-02T07:42:42.374Z,100368.03
2023-05-02T07:45:12.687Z,100360.22
2023-05-02T07:47:42.097Z,100359.66
2023-05-02T07:50:11.623Z,100352.84
2023-05-02T07:52:40.533Z,100347.16
2023-05-02T07:55:09.788Z,100343.03
2023-05-02T07:57:38.483Z,100351.94
2023-05-02T08:00:10.468Z,100336.50
2023-05-02T08:02:45.318Z,100345.00
2023-05-02T08:05:14.212Z,100345.91
2023-05-02T08:07:42.906Z,100346.41
2023-05-02T08:10:12.350Z,100342.69
2023-05-02T08:12:41.608Z,100336.59
2023-05-02T08:15:13.150Z,100339.19
2023-05-02T08:17:41.784Z,100330.00
2023-05-02T08:20:12.644Z,100325.16
2023-05-02T08:22:41.054Z,100321.31
2023-05-02T08:25:10.152Z,100326.00
2023-05-02T08:27:38.753Z,100317.56
2023-05-02T08:30:09.121Z,100315.94
2023-05-02T08:32:38.564Z,100316.00
2023-05-02T08:35:08.285Z,100313.88
2023-05-02T08:37:38.495Z,100306.44
2023-05-02T08:40:09.646Z,100302.88
2023-05-02T08:42:38.767Z,100304.22
2023-05-02T08:45:10.095Z,100294.69
2023-05-02T08:47:40.369Z,100287.09
2023-05-02T08:50:10.726Z,100290.91
2023-05-02T08:52:40.824Z,100281.66
2023-05-02T08:55:10.188Z,100282.22
2023-05-02T08:57:40.109Z,100284.75
2023-05-02T09:00:09.710Z,100277.59
2023-05-02T09:02:52.232Z,100276.19
2023-05-02T09:05:22.508Z,100278.22
2023-05-02T09:07:53.389Z,100275.47
2023-05-02T09:10:23.463Z,100267.84
2023-05-02T09:12:51.965Z,100266.94
2023-05-02T09:15:22.469Z,100260.47
2023-05-02T09:17:51.298Z,100249.72
2023-05-02T09:20:19.793Z,100246.63
2023-05-02T09:22:54.188Z,100245.81
2023-05-02T09:25:22.790Z,100231.25
2023-05-02T09:27:53.320Z,100226.06
2023-05-02T09:30:24.015Z,100232.19
2023-05-02T09:32:55.897Z,100228.84
2023-05-02T09:35:25.130Z,100220.88
2023-05-02T09:37:56.265Z,100209.19
2023-05-02T09:40:27.788Z,100208.59
2023-05-02T09:42:57.755Z,100206.56
2023-05-02T09:45:27.619Z,100202.00
2023-05-02T09:47:56.292Z,100202.16
2023-05-02T09:50:38.451Z,100198.00
2023-05-02T09:53:11.423Z,100191.13
2023-05-02T09:55:40.182Z,100200.59
2023-05-02T09:58:08.798Z,100192.69
2023-05-02T10:00:42.151Z,100188.72
2023-05-02T10:03:11.624Z,100199.06
2023-05-02T10:05:41.450Z,100170.97
2023-05-02T10:08:13.061Z,100189.69
2023-05-02T10:10:45.233Z,100177.97
2023-05-02T10:13:15.314Z,100179.56
2023-05-02T10:15:45.942Z,100190.34
2023-05-02T10:18:15.868Z,100174.16
2023-05-02T10:20:58.889Z,100180.66
2023-05-02T10:23:30.606Z,100174.47
2023-05-02T10:26:01.946Z,100162.97
2023-05-02T10:28:31.892Z,100180.06
2023-05-02T10:31:03.483Z,100174.78
2023-05-02T10:33:35.676Z,100174.75
2023-05-02T10:36:04.936Z,100170.31
2023-05-02T10:38:35.232Z,100165.94
2023-05-02T10:41:11.875Z,100168.16
2023-05-02T10:43:40.832Z,100171.53
2023-05-02T10:46:36.852Z,100177.34
2023-05-02T10:49:07.570Z,100164.59
2023-05-02T10:51:37.770Z,100170.41
2023-05-02T10:54:24.287Z,100170.53
2023-05-02T10:57:06.879Z,100165.50
2023-05-02T10:59:37.721Z,100168.94
2023-05-02T11:02:07.301Z,100172.66
2023-05-02T11:05:01.700Z,100172.47
2023-05-02T11:07:31.442Z,100163.13
2023-05-02T11:10:32.237Z,100169.88
2023-05-02T11:13:01.930Z,100165.44
2023-05-02T11:15:58.170Z,100165.97
2023-05-02T11:18:27.157Z,100159.78
2023-05-02T11:21:32.087Z,100146.69
2023-05-02T11:24:37.105Z,100158.59
2023-05-02T11:27:40.129Z,100141.34
2023-05-02T11:30:10.501Z,100151.41
2023-05-02T11:33:16.271Z,100159.34
2023-05-02T11:35:47.029Z,100155.59
2023-05-02T11:38:17.625Z,100166.75
2023-05-02T11:40:58.034Z,100161.19
2023-05-02T11:43:31.877Z,100162.00
2023-05-02T11:46:03.047Z,100157.63
2023-05-02T11:48:32.083Z,100181.16
2023-05-02T11:51:05.683Z,100180.66
2023-05-02T11:53:34.984Z,100193.22
2023-05-02T11:56:05.455Z,100190.38
2023-05-02T11:58:35.595Z,100190.38
2023-05-02T12:01:14.665Z,100189.63
2023-05-02T12:03:44.096Z,100187.47
2023-05-02T12:06:14.929Z,100184.25
2023-05-02T12:08:45.477Z,100183.78
2023-05-02T12:11:15.997Z,100183.34
2023-05-02T12:13:51.031Z,100191.03
2023-05-02T12:16:20.284Z,100188.69
2023-05-02T12:18:49.661Z,100189.41
2023-05-02T12:21:19.195Z,100187.78
2023-05-02T12:23:48.116Z,100178.22
2023-05-02T12:26:21.639Z,100177.88
2023-05-02T12:28:52.670Z,100178.34
2023-05-02T12:31:21.386Z,100187.25
2023-05-02T12:33:51.068Z,100184.06
2023-05-02T12:36:20.237Z,100177.91
2023-05-02T12:38:54.623Z,100184.72
2023-05-02T12:41:34.282Z,100182.00
2023-05-02T12:44:05.415Z,100189.69
2023-05-02T12:46:34.271Z,100179.66
2023-05-02T12:49:08.455Z,100187.66
2023-05-02T12:51:37.275Z,100182.88
2023-05-02T12:54:07.002Z,100186.31
2023-05-02T12:56:40.734Z,100175.13
2023-05-02T12:59:12.235Z,100185.47
2023-05-02T13:01:40.875Z,100190.78
2023-05-02T13:04:09.491Z,100187.72
2023-05-02T13:06:38.531Z,100196.84
2023-05-02T13:09:07.576Z,100190.50
2023-05-02T13:11:36.855Z,100193.91
2023-05-02T13:14:06.083Z,100198.34
2023-05-02T13:16:37.364Z,100200.19
2023-05-02T13:19:06.744Z,100195.50
2023-05-02T13:21:35.314Z,100196.22
2023-05-02T13:24:05.239Z,100209.94
2023-05-02T13:26:33.939Z,100208.75
2023-05-02T13:29:02.609Z,100219.75
2023-05-02T13:31:31.211Z,100258.41
2023-05-02T13:34:01.333Z,100283.34
2023-05-02T13:36:29.883Z,100294.41
2023-05-02T13:38:58.587Z,100306.22
2023-05-02T13:41:27.152Z,100334.41
2023-05-02T13:43:55.831Z,100345.88
2023-05-02T13:46:24.488Z,100366.03
2023-05-02T13:48:53.120Z,100366.50
2023-05-02T13:51:24.931Z,100357.28
2023-05-02T13:53:53.661Z,100359.34
2023-05-02T13:56:22.217Z,100365.53
2023-05-02T13:58:50.783Z,100374.50
2023-05-02T14:01:20.499Z,100377.47
2023-05-02T14:03:49.229Z,100383.19
2023-05-02T14:06:17.922Z,100391.06
2023-05-02T14:08:47.972Z,100394.56
2023-05-02T14:11:16.915Z,100392.69
2023-05-02T14:13:45.926Z,100397.25
2023-05-02T14:16:14.680Z,100407.03
2023-05-02T14:18:43.269Z,100424.50
2023-05-02T14:21:11.818Z,100428.69
2023-05-02T14:23:40.330Z,100426.91
2023-05-02T14:26:10.564Z,100439.06
2023-05-02T14:28:40.455Z,100447.00
2023-05-02T14:31:09.214Z,100453.06
2023-05-02T14:33:37.879Z,100467.94
2023-05-02T14:36:07.110Z,100466.50
2023-05-02T14:38:35.916Z,100474.69
2023-05-02T14:41:04.557Z,100470.88
2023-05-02T14:43:34.621Z,100464.78
2023-05-02T14:46:04.006Z,100459.66
2023-05-02T14:48:32.676Z,100462.75
2023-05-02T14:51:04.435Z,100471.34
2023-05-02T14:53:33.173Z,100482.94
2023-05-02T14:56:01.659Z,100510.19
2023-05-02T14:58:30.250Z,100500.22
2023-05-02T15:01:00.827Z,100508.47
2023-05-02T15:03:29.557Z,100526.66
2023-05-02T15:05:58.245Z,100524.34
2023-05-02T15:08:26.960Z,100540.38
2023-05-02T15:10:57.224Z,100545.06
2023-05-02T15:13:26.024Z,100546.44
2023-05-02T15:15:55.884Z,100556.88
2023-05-02T15:18:26.072Z,100576.00
2023-05-02T15:20:54.627Z,100576.00
2023-05-02T15:23:23.365Z,100569.53
2023-05-02T15:25:52.169Z,100584.06
2023-05-02T15:28:20.762Z,100590.00
2023-05-02T15:30:49.933Z,100592.13
2023-05-02T15:33:18.516Z,100596.16
2023-05-02T15:35:58.463Z,100599.06
2023-05-02T15:38:27.436Z,100600.63
2023-05-02T15:40:56.841Z,100608.94
2023-05-02T15:43:25.999Z,100602.34
2023-05-02T15:45:55.451Z,100606.00
2023-05-02T15:48:25.897Z,100618.81
2023-05-02T15:50:56.587Z,100619.53
2023-05-02T15:53:25.702Z,100630.25
2023-05-02T15:55:54.311Z,100636.84
2023-05-02T15:58:23.141Z,100641.09
2023-05-02T16:00:52.626Z,100647.34
2023-05-02T16:03:21.562Z,100653.63
2023-05-02T16:05:50.776Z,100648.28
2023-05-02T16:08:20.881Z,100643.75
2023-05-02T16:10:49.440Z,100645.97
2023-05-02T16:13:18.330Z,100656.81
2023-05-02T16:15:48.438Z,100661.94
2023-05-02T16:18:17.176Z,100672.38
2023-05-02T16:20:47.983Z,100670.81
2023-05-02T16:23:16.620Z,100678.13
2023-05-02T16:25:46.697Z,100684.81
2023-05-02T16:28:15.365Z,100689.78
2023-05-02T16:30:44.113Z,100701.72
2023-05-02T16:33:12.836Z,100701.59
2023-05-02T16:35:41.497Z,100712.16
2023-05-02T16:38:10.328Z,100720.28
2023-05-02T16:40:38.961Z,100719.34
2023-05-02T16:43:09.137Z,100732.22
2023-05-02T16:45:38.948Z,100728.19
2023-05-02T16:48:08.238Z,100730.34
2023-05-02T16:50:37.211Z,100734.13
2023-05-02T16:53:06.683Z,100734.69
2023-05-02T16:55:35.420Z,100734.03
2023-05-02T16:58:04.095Z,100756.69
2023-05-02T17:00:34.283Z,100754.47
2023-05-02T17:03:05.196Z,100760.78
2023-05-02T17:05:34.515Z,100760.38
2023-05-02T17:08:03.121Z,100772.41
2023-05-02T17:10:31.916Z,100780.88
2023-05-02T17:13:00.532Z,100787.94
2023-05-02T17:15:29.255Z,100794.06
2023-05-02T17:17:59.456Z,100796.28
2023-05-02T17:20:28.209Z,100807.72
2023-05-02T17:22:57.260Z,100806.13
2023-05-02T17:25:25.971Z,100807.31
2023-05-02T17:27:54.660Z,100812.91
2023-05-02T17:30:24.008Z,100817.94
2023-05-02T17:32:52.699Z,100820.16
2023-05-02T17:35:22.754Z,100822.84
2023-05-02T17:37:51.359Z,100825.75
2023-05-02T17:40:20.113Z,100826.19
2023-05-02T17:42:49.174Z,100819.97
2023-05-02T17:45:18.292Z,100831.03
2023-05-02T17:47:47.005Z,100830.03
2023-05-02T17:50:15.592Z,100835.28
2023-05-02T17:52:45.859Z,100836.00
2023-05-02T17:55:14.641Z,100848.53
2023-05-02T17:57:43.294Z,100841.91
2023-05-02T18:00:12.960Z,100841.38
2023-05-02T18:02:41.589Z,100844.28
2023-05-02T18:05:10.809Z,100841.19
2023-05-02T18:07:39.311Z,100855.09
2023-05-02T18:10:10.258Z,100860.56
2023-05-02T18:12:38.794Z,100862.34
2023-05-02T18:15:09.380Z,100867.91
2023-05-02T18:17:40.297Z,100864.06
2023-05-02T18:20:10.511Z,100883.94
2023-05-02T18:22:39.300Z,100880.00
2023-05-02T18:25:10.019Z,100881.28
2023-05-02T18:27:38.609Z,100887.69
2023-05-02T18:30:08.583Z,100897.22
2023-05-02T18:32:37.460Z,100896.63
2023-05-02T18:35:10.658Z,100896.75
2023-05-02T18:37:39.401Z,100906.78
2023-05-02T18:40:10.865Z,100904.03
2023-05-02T18:42:39.438Z,100905.84
2023-05-02T18:45:09.599Z,100905.28
2023-05-02T18:47:38.234Z,100912.97
2023-05-02T18:50:08.785Z,100912.53
2023-05-02T18:52:37.558Z,100914.16
2023-05-02T18:55:06.749Z,100921.06
2023-05-02T18:57:36.713Z,100927.47
2023-05-02T19:00:06.730Z,100929.78
2023-05-02T19:02:35.357Z,100931.03
2023-05-02T19:05:29.740Z,100942.78
2023-05-02T19:07:58.258Z,100946.22
2023-05-02T19:10:26.782Z,100944.97
2023-05-02T19:12:56.953Z,100957.00
2023-05-02T19:15:27.179Z,100961.03
2023-05-02T19:17:56.312Z,100967.34
2023-05-02T19:20:25.020Z,100971.53
2023-05-02T19:23:02.926Z,100984.47
2023-05-02T19:25:42.161Z,100981.53
2023-05-02T19:28:16.000Z,100982.78
2023-05-02T19:30:45.543Z,100990.78
2023-05-02T19:33:14.353Z,100991.19
2023-05-02T19:35:43.102Z,100994.31
2023-05-02T19:38:11.664Z,100992.91
2023-05-02T19:40:40.261Z,100990.91
2023-05-02T19:43:34.853Z,100997.50
2023-05-02T19:46:03.598Z,100997.66
2023-05-02T19:48:32.146Z,101001.28
2023-05-02T19:51:03.884Z,101007.75
2023-05-02T19:53:32.471Z,101010.78
2023-05-02T19:56:01.376Z,101013.06
2023-05-02T19:58:30.916Z,101011.75
2023-05-02T20:01:01.159Z,101013.66
2023-05-02T20:03:30.104Z,101014.78
2023-05-02T20:05:58.915Z,101021.91
2023-05-02T20:08:28.281Z,101029.59
2023-05-02T20:10:56.969Z,101026.94
2023-05-02T20:13:25.663Z,101026.25
2023-05-02T20:15:54.987Z,101028.06
2023-05-02T20:18:25.113Z,101031.78
2023-05-02T20:20:53.833Z,101032.81
2023-05-02T20:23:22.409Z,101047.09
2023-05-02T20:25:50.972Z,101040.41
2023-05-02T20:28:19.673Z,101042.28
2023-05-02T20:30:48.111Z,101059.06
2023-05-02T20:33:17.732Z,101055.81
2023-05-02T20:35:55.164Z,101049.88
2023-05-02T20:38:24.389Z,101054.34
2023-05-02T20:40:53.262Z,101060.53
2023-05-02T20:43:23.851Z,101070.59
2023-05-02T20:45:52.353Z,101062.19
2023-05-02T20:48:20.956Z,101071.97
2023-05-02T20:50:57.018Z,101065.28
2023-05-02T20:53:25.706Z,101073.38
2023-05-02T20:55:54.245Z,101072.50
2023-05-02T20:58:24.244Z,101072.78
2023-05-02T21:00:54.268Z,101072.94
2023-05-02T21:03:23.072Z,101075.59
2023-05-02T21:05:57.288Z,101079.41
2023-05-02T21:08:25.809Z,101078.44
2023-05-02T21:10:55.092Z,101087.81
2023-05-02T21:13:24.245Z,101096.66
2023-05-02T21:15:52.824Z,101090.63
2023-05-02T21:18:22.041Z,101097.09
2023-05-02T21:20:50.885Z,101092.69
2023-05-02T21:23:21.014Z,101104.19
2023-05-02T21:25:49.552Z,101101.53
2023-05-02T21:28:18.164Z,101112.94
2023-05-02T21:30:46.662Z,101111.13
2023-05-02T21:33:17.737Z,101105.13
2023-05-02T21:35:46.635Z,101111.13
2023-05-02T21:38:15.084Z,101105.06
2023-05-02T21:40:45.423Z,101118.28
2023-05-02T21:43:13.902Z,101115.19
2023-05-02T21:45:45.865Z,101112.78
2023-05-02T21:48:14.952Z,101127.63
2023-05-02T21:50:43.485Z,101129.28
2023-05-02T21:53:12.263Z,101138.19
2023-05-02T21:55:41.298Z,101129.94
2023-05-02T21:58:12.425Z,101140.84
2023-05-02T22:00:41.565Z,101144.72
2023-05-02T22:03:12.074Z,101145.41
2023-05-02T22:05:41.529Z,101148.16
2023-05-02T22:08:11.710Z,101152.50
2023-05-02T22:10:41.644Z,101156.97
2023-05-02T22:13:13.370Z,101152.75
2023-05-02T22:15:45.579Z,101156.56
2023-05-02T22:18:14.697Z,101162.19
2023-05-02T22:20:43.440Z,101153.41
2023-05-02T22:23:13.063Z,101164.16
2023-05-02T22:25:43.053Z,101162.59
2023-05-02T22:28:13.884Z,101164.75
2023-05-02T22:30:43.754Z,101167.78
2023-05-02T22:33:13.032Z,101170.53
2023-05-02T22:35:41.470Z,101179.59
2023-05-02T22:38:10.463Z,101172.88
2023-05-02T22:40:38.943Z,101175.78
2023-05-02T22:43:08.232Z,101181.97
2023-05-02T22:45:38.633Z,101180.41
2023-05-02T22:48:08.234Z,101178.03
2023-05-02T22:50:36.714Z,101174.69
2023-05-02T22:53:05.367Z,101172.25
2023-05-02T22:55:33.821Z,101168.81
2023-05-02T22:58:02.446Z,101167.28
2023-05-02T23:00:31.027Z,101167.28
2023-05-02T23:03:01.349Z,101162.19
2023-05-02T23:05:30.219Z,101160.59
2023-05-02T23:07:58.710Z,101172.19
2023-05-02T23:10:27.209Z,101166.16
2023-05-02T23:12:56.271Z,101172.47
2023-05-02T23:15:24.773Z,101168.19
2023-05-02T23:17:53.312Z,101172.63
2023-05-02T23:20:23.537Z,101172.56
2023-05-02T23:22:52.072Z,101175.34
2023-05-02T23:25:21.297Z,101184.44
2023-05-02T23:27:49.913Z,101184.56
2023-05-02T23:30:18.578Z,101182.84
2023-05-02T23:32:47.549Z,101181.78
2023-05-02T23:35:16.085Z,101182.56
2023-05-02T23:37:46.523Z,101185.22
2023-05-02T23:40:15.393Z,101186.38
2023-05-02T23:42:44.120Z,101191.78
2023-05-02T23:45:13.435Z,101188.88
2023-05-02T23:47:41.948Z,101193.97
2023-05-02T23:50:11.260Z,101195.69
2023-05-02T23:52:39.764Z,101184.06
2023-05-02T23:55:10.985Z,101191.31
2023-05-02T23:57:39.686Z,101178.81
